createdAt,value
2018-09-06T05:55:54.692Z,10.83
2018-09-06T05:59:19.441Z,11.70
2018-09-06T06:02:44.333Z,11.00
2018-09-06T06:06:10.264Z,11.83
2018-09-06T06:09:34.942Z,11.30
2018-09-06T06:13:01.072Z,11.23
2018-09-06T06:16:25.886Z,11.30
2018-09-06T06:19:50.753Z,12.53
2018-09-06T06:23:15.503Z,12.43
2018-09-06T06:26:40.795Z,11.57
2018-09-06T06:30:20.524Z,11.47
2018-09-06T06:33:48.035Z,11.73
2018-09-06T06:37:12.685Z,12.03
2018-09-06T06:40:38.676Z,12.70
2018-09-06T06:44:03.516Z,13.17
2018-09-06T06:47:29.054Z,12.80
2018-09-06T06:50:54.067Z,12.10
2018-09-06T06:54:20.116Z,12.43
2018-09-06T06:57:45.523Z,12.87
2018-09-06T07:01:10.440Z,12.87
2018-09-06T07:04:35.305Z,13.73
2018-09-06T07:07:59.995Z,12.40
2018-09-06T07:11:25.481Z,14.43
2018-09-06T07:14:50.822Z,13.43
2018-09-06T07:18:15.723Z,13.73
2018-09-06T07:21:40.671Z,13.97
2018-09-06T07:25:05.457Z,13.83
2018-09-06T07:28:30.293Z,13.00
2018-09-06T07:31:55.456Z,12.23
2018-09-06T07:35:20.300Z,13.07
2018-09-06T07:38:45.173Z,13.60
2018-09-06T07:42:10.278Z,13.57
2018-09-06T07:45:36.178Z,13.17
2018-09-06T07:49:01.099Z,12.43
2018-09-06T07:52:26.168Z,11.90
2018-09-06T07:56:10.477Z,11.90
2018-09-06T07:59:36.080Z,12.50
2018-09-06T08:03:00.849Z,13.50
2018-09-06T08:06:25.916Z,12.27
2018-09-06T08:09:50.576Z,12.80
2018-09-06T08:13:15.437Z,12.37
2018-09-06T08:16:41.514Z,11.77
2018-09-06T08:20:06.701Z,12.37
2018-09-06T08:23:34.067Z,11.77
2018-09-06T08:26:59.074Z,12.73
2018-09-06T08:30:27.030Z,12.17
2018-09-06T08:33:52.957Z,11.27
2018-09-06T08:37:17.763Z,10.40
2018-09-06T08:40:44.217Z,8.13
2018-09-06T08:44:09.354Z,7.57
2018-09-06T08:47:34.226Z,7.23
2018-09-06T08:50:59.112Z,8.03
2018-09-06T08:54:24.012Z,8.10
2018-09-06T08:57:48.888Z,7.77
2018-09-06T09:01:19.166Z,8.17
2018-09-06T09:04:44.040Z,7.43
2018-09-06T09:08:08.828Z,7.47
2018-09-06T09:11:33.631Z,7.70
2018-09-06T09:14:58.506Z,6.87
2018-09-06T09:18:23.340Z,7.70
2018-09-06T09:21:48.161Z,7.50
2018-09-06T09:25:12.902Z,8.33
2018-09-06T09:28:37.696Z,8.40
2018-09-06T09:32:02.577Z,7.97
2018-09-06T09:35:27.510Z,8.23
2018-09-06T09:38:52.233Z,7.80
2018-09-06T09:42:17.085Z,8.83
2018-09-06T09:45:41.761Z,8.17
2018-09-06T09:49:06.517Z,8.57
2018-09-06T09:52:31.207Z,9.03
2018-09-06T09:55:57.115Z,9.13
2018-09-06T09:59:21.863Z,8.90
2018-09-06T10:07:20.680Z,8.87
2018-09-06T10:10:45.423Z,8.30
2018-09-06T10:14:10.224Z,8.23
2018-09-06T10:17:35.044Z,8.00
2018-09-06T10:20:59.962Z,7.73
2018-09-06T10:24:24.764Z,7.50
2018-09-06T10:27:49.517Z,7.33
2018-09-06T10:31:14.448Z,7.17
2018-09-06T10:34:39.245Z,7.20
2018-09-06T10:38:04.144Z,6.57
2018-09-06T10:41:28.921Z,6.70
2018-09-06T10:44:53.741Z,6.97
2018-09-06T10:48:18.591Z,7.10
2018-09-06T10:51:43.287Z,6.47
2018-09-06T10:55:08.099Z,6.70
2018-09-06T10:58:32.886Z,6.90
2018-09-06T11:01:57.641Z,6.50
2018-09-06T11:05:22.405Z,6.90
2018-09-06T11:08:47.138Z,6.57
2018-09-06T11:12:11.862Z,7.23
2018-09-06T11:15:36.627Z,7.10
2018-09-06T11:19:02.131Z,5.83
2018-09-06T11:22:27.024Z,5.83
2018-09-06T11:25:51.535Z,6.37
2018-09-06T11:29:16.220Z,6.67
2018-09-06T11:32:41.109Z,6.57
2018-09-06T11:36:06.077Z,6.93
2018-09-06T11:39:30.954Z,6.37
2018-09-06T11:42:55.666Z,6.50
2018-09-06T11:46:20.402Z,7.23
2018-09-06T11:49:45.359Z,7.03
2018-09-06T11:53:10.619Z,6.63
2018-09-06T11:56:36.438Z,7.10
2018-09-06T12:00:02.492Z,7.77
2018-09-06T12:03:28.222Z,7.40
2018-09-06T12:06:53.124Z,6.23
2018-09-06T12:10:18.206Z,7.43
2018-09-06T12:13:43.964Z,6.83
2018-09-06T12:17:08.712Z,6.47
2018-09-06T12:20:33.409Z,6.73
2018-09-06T12:23:58.495Z,6.90
2018-09-06T12:27:23.356Z,6.20
2018-09-06T12:30:48.244Z,6.13
2018-09-06T12:34:13.155Z,6.00
2018-09-06T12:37:38.896Z,5.60
2018-09-06T12:41:03.682Z,5.23
2018-09-06T12:44:28.542Z,5.87
2018-09-06T12:47:53.472Z,5.43
2018-09-06T12:51:18.239Z,5.70
2018-09-06T13:02:41.935Z,5.80
2018-09-06T13:06:07.009Z,5.83
2018-09-06T13:09:31.815Z,6.33
2018-09-06T13:12:56.552Z,6.07
2018-09-06T13:16:21.316Z,6.40
2018-09-06T13:19:46.118Z,5.87
2018-09-06T13:23:10.980Z,6.00
2018-09-06T13:26:35.685Z,6.07
2018-09-06T13:30:00.367Z,6.43
2018-09-06T13:33:25.028Z,5.90
2018-09-06T13:36:49.727Z,6.83
2018-09-06T13:40:14.469Z,5.67
2018-09-06T13:43:39.133Z,6.13
2018-09-06T13:48:28.224Z,6.27
2018-09-06T13:51:52.894Z,5.97
2018-09-06T13:55:17.555Z,5.77
2018-09-06T13:58:43.410Z,5.73
2018-09-06T14:02:12.197Z,5.77
2018-09-06T14:05:38.388Z,5.43
2018-09-06T14:09:04.670Z,5.13
2018-09-06T14:12:30.424Z,5.10
2018-09-06T14:15:56.292Z,5.70
2018-09-06T14:19:21.933Z,5.80
2018-09-06T14:22:47.381Z,5.73
2018-09-06T14:26:16.119Z,6.27
2018-09-06T14:29:41.658Z,5.50
2018-09-06T14:33:09.933Z,6.07
2018-09-06T14:36:35.256Z,5.40
2018-09-06T14:40:02.165Z,5.60
2018-09-06T14:43:27.325Z,5.67
2018-09-06T14:46:52.537Z,5.47
2018-09-06T14:50:17.752Z,5.50
2018-09-06T14:53:42.793Z,5.80
2018-09-06T14:57:10.434Z,5.60
2018-09-06T15:00:35.753Z,5.70
2018-09-06T15:04:00.939Z,5.43
2018-09-06T15:07:26.237Z,5.20
2018-09-06T15:10:51.451Z,5.40
2018-09-06T15:14:16.676Z,5.57
2018-09-06T15:17:41.720Z,5.33
2018-09-06T15:21:06.972Z,6.50
2018-09-06T15:24:32.096Z,5.50
2018-09-06T15:27:57.368Z,4.97
2018-09-06T15:31:22.735Z,5.63
2018-09-06T15:34:48.097Z,5.73
2018-09-06T15:38:13.537Z,6.00
2018-09-06T15:41:39.095Z,5.63
2018-09-06T15:45:04.148Z,6.20
2018-09-06T15:48:28.877Z,6.00
2018-09-06T15:51:53.546Z,5.90
2018-09-06T15:55:18.283Z,5.63
2018-09-06T15:58:42.915Z,6.03
2018-09-06T16:02:07.660Z,6.10
2018-09-06T16:05:32.514Z,6.20
2018-09-06T16:08:57.233Z,5.80
2018-09-06T16:12:21.959Z,5.97
2018-09-06T16:15:46.609Z,6.47
2018-09-06T16:19:11.369Z,6.63
2018-09-06T16:22:36.117Z,6.60
2018-09-06T16:26:01.118Z,6.03
2018-09-06T16:29:25.870Z,6.83
2018-09-06T16:32:50.571Z,5.83
2018-09-06T16:36:15.338Z,6.47
2018-09-06T16:39:40.238Z,5.07
2018-09-06T16:43:07.013Z,5.97
2018-09-06T16:46:31.673Z,5.40
2018-09-06T16:49:56.579Z,5.73
2018-09-06T16:53:21.280Z,4.87
2018-09-06T16:56:46.234Z,5.43
2018-09-06T17:00:11.157Z,5.10
2018-09-06T17:03:35.870Z,4.90
2018-09-06T17:07:00.868Z,5.53
2018-09-06T17:10:25.593Z,6.07
2018-09-06T17:13:50.391Z,5.77
2018-09-06T17:17:16.441Z,6.53
2018-09-06T17:20:41.173Z,5.83
2018-09-06T17:24:05.919Z,5.20
2018-09-06T17:27:31.209Z,5.13
2018-09-06T17:30:56.196Z,5.07
2018-09-06T17:34:21.593Z,5.23
2018-09-06T17:37:47.003Z,5.03
2018-09-06T17:41:13.534Z,5.20
2018-09-06T17:46:02.736Z,4.67
2018-09-06T17:49:27.488Z,5.33
2018-09-06T17:52:52.228Z,4.57
2018-09-06T17:56:17.128Z,4.80
2018-09-06T17:59:42.326Z,5.03
2018-09-06T18:03:07.103Z,4.97
2018-09-06T18:06:32.128Z,5.03
2018-09-06T18:09:56.900Z,5.27
2018-09-06T18:13:21.687Z,4.43
2018-09-06T18:16:46.446Z,4.67
2018-09-06T18:20:11.926Z,4.53
2018-09-06T18:23:37.503Z,4.77
2018-09-06T18:27:02.377Z,4.77
2018-09-06T18:30:29.590Z,4.43
2018-09-06T18:33:56.080Z,4.90
2018-09-06T18:37:20.922Z,4.97
2018-09-06T18:40:45.853Z,4.80
2018-09-06T18:44:10.566Z,5.40
2018-09-06T18:47:36.343Z,5.27
2018-09-06T18:51:01.353Z,5.47
2018-09-06T18:54:26.236Z,5.57
2018-09-06T18:57:51.266Z,5.10
2018-09-06T19:01:16.098Z,5.37
2018-09-06T19:04:40.784Z,5.47
2018-09-06T19:08:05.802Z,5.80
2018-09-06T19:11:32.005Z,5.53
2018-09-06T19:14:57.540Z,5.87
2018-09-06T19:18:24.117Z,5.33
2018-09-06T19:21:49.101Z,5.47
2018-09-06T19:25:14.100Z,5.60
2018-09-06T19:28:39.407Z,5.13
2018-09-06T19:32:05.120Z,5.87
2018-09-06T19:35:30.892Z,5.53
2018-09-06T19:38:55.960Z,5.83
2018-09-06T19:42:21.800Z,6.50
2018-09-06T19:45:46.545Z,5.70
2018-09-06T19:49:11.371Z,5.90
2018-09-06T19:52:36.220Z,6.67
2018-09-06T19:56:00.958Z,6.47
2018-09-06T19:59:25.740Z,6.20
2018-09-06T20:02:50.503Z,6.90
2018-09-06T20:06:15.411Z,7.43
2018-09-06T20:09:40.237Z,6.73
2018-09-06T20:13:05.025Z,7.07
2018-09-06T20:16:29.928Z,6.70
2018-09-06T20:19:54.844Z,7.13
2018-09-06T20:23:19.663Z,7.40
2018-09-06T20:26:44.440Z,7.90
2018-09-06T20:30:09.203Z,7.83
2018-09-06T20:33:34.042Z,7.20
2018-09-06T20:36:58.736Z,8.60
2018-09-06T20:40:23.441Z,8.67
2018-09-06T20:47:20.752Z,8.30
2018-09-06T20:50:45.522Z,8.23
2018-09-06T20:54:10.337Z,8.57
2018-09-06T20:57:35.258Z,8.47
2018-09-06T21:00:59.956Z,7.73
2018-09-06T21:04:24.695Z,8.43
2018-09-06T21:07:49.400Z,8.90
2018-09-06T21:11:14.088Z,7.83
2018-09-06T21:14:38.869Z,8.23
2018-09-06T21:18:03.529Z,8.30
2018-09-06T21:21:28.194Z,8.27
2018-09-06T21:24:52.910Z,7.70
2018-09-06T21:28:17.611Z,8.17
2018-09-06T21:31:42.291Z,8.27
2018-09-06T21:35:07.042Z,7.90
2018-09-06T21:38:31.703Z,8.20
2018-09-06T21:41:56.466Z,8.53
2018-09-06T21:45:21.201Z,8.17
2018-09-06T21:48:45.887Z,8.43
2018-09-06T21:52:10.532Z,9.83
2018-09-06T21:55:35.354Z,9.30
2018-09-06T21:59:00.000Z,9.40
2018-09-06T22:02:30.009Z,9.07
2018-09-06T22:05:54.732Z,10.03
2018-09-06T22:09:19.516Z,9.77
2018-09-06T22:12:44.165Z,8.90
2018-09-06T22:16:08.856Z,9.40
2018-09-06T22:19:33.563Z,9.40
2018-09-06T22:22:58.224Z,9.63
2018-09-06T22:26:23.007Z,9.60
2018-09-06T22:29:47.606Z,9.70
2018-09-06T22:33:12.262Z,8.63
2018-09-06T22:36:37.790Z,8.90
2018-09-06T22:40:02.477Z,8.60
2018-09-06T22:43:27.114Z,9.20
2018-09-06T22:46:53.662Z,9.33
2018-09-06T22:50:18.582Z,8.27
2018-09-06T22:53:43.218Z,8.87
2018-09-06T22:57:07.933Z,8.47
2018-09-06T23:00:32.745Z,8.10
2018-09-06T23:03:57.386Z,9.20
2018-09-06T23:07:22.193Z,8.53
2018-09-06T23:10:46.841Z,8.30
2018-09-06T23:14:11.487Z,8.77
2018-09-06T23:17:36.147Z,8.00
2018-09-06T23:21:00.750Z,8.73
2018-09-06T23:24:25.387Z,8.70
2018-09-06T23:27:50.068Z,8.67
2018-09-06T23:31:14.733Z,8.83
2018-09-06T23:34:39.390Z,8.20
2018-09-06T23:38:04.016Z,8.53
2018-09-06T23:41:28.651Z,9.20
2018-09-06T23:52:52.925Z,9.80
2018-09-06T23:56:17.630Z,8.63
2018-09-06T23:59:42.249Z,8.93
